map of RIX home
RIX - Airport
Location
City:  Riga, Latvia
Name:Riga International Airport
Old (Alt.):Skulte
ICAO:EVRA
IATA:RIX

Details
Type:Airport (Aerodrome, Airfield)
Use:Public/Civil, International (customs port of entry)
Latitude:5655'25"N (56.923611)
Longitude:2358'16"E (23.971111)
Datum:WGS 1984
Elevation:34 ft (10 m)
Variation:7.94E (WMM2015v2 magnetic declination)
0.18 annual change
Runways:1
Longest:8366 × 148 ft (2550 × 45 m), paved

Time
Time Zone:UTC+2 (DST+3)
Local Time:

Weather
METAR:EVRA 041420Z 30006KT 240V340 9999 OVC019 M02/M02 Q1021 R36/590395 NOSIG
TAF:EVRA 041400Z 0415/0515 31007KT 9999 BKN015 OVC020
BECMG 0417/0419 19007KT
TEMPO 0506/0515 18015G26KT BKN010 OVC020

Related Locations
Nearby:
Farthest:CHT: 11164 mi / 17966 km
Waitangi [Tuuta], CIT, NZ

Find:

   beyond  
but within

Other Information
Maps:
NOTAMs:
Links:
Sources:

  
  • flag of Latvia
  • flag of Riga
  

Airport Diagram

Airport diagram for RIX

Larger airport diagram (OBSOLETE) from NGA

Sectional Chart

Flight Planning
at skyvector.com

Satellite Image

Google Maps Satellite view

 

Copyright © 2004-2019 Karl L. Swartz. All rights reserved.
The Great Circle Mapper name and logo are trademarks of the Great Circle Mapper.
All other trademarks mentioned herein belong to their respective owners.
Please see credits for attibutions and further copyright information.

  Follow gcmap on Facebook Follow gcmap on Twitter GCmap on LinkedIn

hCard Microformat

Geo Microformat